Aviation Digital Data Service (ADDS)

Output produced by METARs form (0954 UTC 23 April 2017)
found at http://www.aviationweather.gov/adds/metars/
 
NZAA 230930Z AUTO 14008KT 9999 BKN075/// 16/13 Q1020 NOSIG
TAF NZAA 230513Z 2306/2406 14010KT 9999 FEW040 SCT050 
     BECMG 2322/2400 24012KT
       
NZCH 230930Z AUTO 18002KT 4100 BR NCD 08/08 Q1019 BECMG FM1100 0200 FG
TAF NZCH 230513Z 2306/2406 03010KT CAVOK 
     BECMG 2307/2309 VRB02KT 
     TEMPO 2308/2311 BKN008 
     BECMG 2311/2313 0200 FG 
     BECMG 2318/2320 9999 NSW 
     BECMG 2401/2403 07010KT
       
NZWN 230930Z AUTO 02014KT 9999 SCT018/// 14/12 Q1020 NOSIG
TAF NZWN 230513Z 2306/2406 01015KT 9999 FEW020 
     BECMG 2313/2315 03005KT 
     FM232300 18010KT 9999 SCT010